Skip Navigation Links Skip Navigation Links

Current Weather

Lagrange-Callaway, Lagrange, Ga.

For information only: do not use for flight planning or navigation.
Latest weather
Observation time Tuesday, January 26, 2021 7:15 PM EST
Local time Tuesday, January 26, 2021 7:35 PM EST
Flight conditions Visual Meteorological Conditions
Winds
Wind speed calm
Visibility 10 mi.
Sky condition
Ceiling 8,000 ft. overcast
Cloud layer overcast 8,000 ft.
Temperature 59°F
Dewpoint 56°F
Altimeter 29.96 in.Hg
Derived measurements
Relative humidity 92%
Density altitude 840 ft.
Remarks
Fully automated report.
Automated weather observing station with precipitation discriminator.
METAR KLGC 270015Z AUTO 00000KT 10SM OVC080 15/14 A2996 RMK AO2 T01480135

Settings

Location code

InnerDrive.Weather 4.0.6770.0 Release CLR 4.0.30319.42000
Copyright ©2018 Inner Drive Technology. All rights reserved. Portions Copyright ©1986-2018 David Braverman.

Find weather

Site navigation


Skip Navigation Links

Place info

Page info

PayPal - The safer, easier way to pay online!

Return home.

Copyright ©2021 Inner Drive Technology. Purveyors of fine, hand-crafted computer software. Page printed 2021-01-27T00:35:25 UTC.